sensor_id;sensor_type;location;lat;lon;timestamp;P1;durP1;ratioP1;P2;durP2;ratioP2
3121;SDS011;1571;52.524;14.104;2023-03-31T00:01:09;6.40;;;4.60;;
3121;SDS011;1571;52.524;14.104;2023-03-31T00:03:37;6.67;;;3.40;;
3121;SDS011;1571;52.524;14.104;2023-03-31T00:06:10;4.40;;;3.33;;
3121;SDS011;1571;52.524;14.104;2023-03-31T00:08:44;4.90;;;3.13;;
3121;SDS011;1571;52.524;14.104;2023-03-31T00:11:18;6.60;;;4.40;;
3121;SDS011;1571;52.524;14.104;2023-03-31T00:13:47;8.40;;;4.20;;
3121;SDS011;1571;52.524;14.104;2023-03-31T00:16:16;4.17;;;3.77;;
3121;SDS011;1571;52.524;14.104;2023-03-31T00:18:45;4.00;;;3.17;;
3121;SDS011;1571;52.524;14.104;2023-03-31T00:21:17;7.50;;;3.70;;
3121;SDS011;1571;52.524;14.104;2023-03-31T00:24:00;5.10;;;3.67;;
3121;SDS011;1571;52.524;14.104;2023-03-31T00:26:30;4.17;;;3.27;;
3121;SDS011;1571;52.524;14.104;2023-03-31T00:28:59;4.93;;;3.20;;
3121;SDS011;1571;52.524;14.104;2023-03-31T00:31:29;11.20;;;7.50;;
3121;SDS011;1571;52.524;14.104;2023-03-31T00:33:57;4.70;;;3.30;;
3121;SDS011;1571;52.524;14.104;2023-03-31T00:36:26;5.07;;;4.03;;
3121;SDS011;1571;52.524;14.104;2023-03-31T00:38:55;6.47;;;3.17;;
3121;SDS011;1571;52.524;14.104;2023-03-31T00:41:26;5.27;;;2.83;;
3121;SDS011;1571;52.524;14.104;2023-03-31T00:44:00;7.87;;;2.93;;
3121;SDS011;1571;52.524;14.104;2023-03-31T00:46:33;3.90;;;3.50;;
3121;SDS011;1571;52.524;14.104;2023-03-31T00:49:05;3.57;;;2.80;;
3121;SDS011;1571;52.524;14.104;2023-03-31T00:51:42;5.67;;;2.80;;
3121;SDS011;1571;52.524;14.104;2023-03-31T00:54:11;4.10;;;2.60;;
3121;SDS011;1571;52.524;14.104;2023-03-31T00:56:41;5.10;;;3.30;;
3121;SDS011;1571;52.524;14.104;2023-03-31T00:59:15;3.67;;;3.37;;
3121;SDS011;1571;52.524;14.104;2023-03-31T01:01:45;5.23;;;2.87;;
3121;SDS011;1571;52.524;14.104;2023-03-31T01:04:16;7.40;;;3.27;;
3121;SDS011;1571;52.524;14.104;2023-03-31T01:06:51;4.53;;;2.57;;
3121;SDS011;1571;52.524;14.104;2023-03-31T01:09:28;7.23;;;3.13;;
3121;SDS011;1571;52.524;14.104;2023-03-31T01:12:01;3.53;;;2.80;;
3121;SDS011;1571;52.524;14.104;2023-03-31T01:14:31;4.63;;;2.77;;
3121;SDS011;1571;52.524;14.104;2023-03-31T01:17:01;4.30;;;2.80;;
3121;SDS011;1571;52.524;14.104;2023-03-31T01:19:34;6.03;;;3.73;;
3121;SDS011;1571;52.524;14.104;2023-03-31T01:22:23;5.13;;;3.50;;
3121;SDS011;1571;52.524;14.104;2023-03-31T01:28:26;9.70;;;4.17;;
3121;SDS011;1571;52.524;14.104;2023-03-31T01:34:29;8.97;;;4.63;;
3121;SDS011;1571;52.524;14.104;2023-03-31T01:37:35;10.63;;;6.10;;
3121;SDS011;1571;52.524;14.104;2023-03-31T01:40:38;13.80;;;7.97;;
3121;SDS011;1571;52.524;14.104;2023-03-31T01:43:16;16.70;;;8.30;;
3121;SDS011;1571;52.524;14.104;2023-03-31T01:45:53;27.40;;;14.43;;
3121;SDS011;1571;52.524;14.104;2023-03-31T01:48:30;20.63;;;10.83;;
3121;SDS011;1571;52.524;14.104;2023-03-31T01:51:09;17.63;;;8.70;;
3121;SDS011;1571;52.524;14.104;2023-03-31T01:53:44;19.43;;;9.70;;
3121;SDS011;1571;52.524;14.104;2023-03-31T01:56:19;29.60;;;15.40;;
3121;SDS011;1571;52.524;14.104;2023-03-31T01:58:53;36.77;;;17.73;;
3121;SDS011;1571;52.524;14.104;2023-03-31T02:01:28;28.43;;;13.93;;
3121;SDS011;1571;52.524;14.104;2023-03-31T02:04:04;22.33;;;13.23;;
3121;SDS011;1571;52.524;14.104;2023-03-31T02:06:37;23.70;;;14.30;;
3121;SDS011;1571;52.524;14.104;2023-03-31T02:09:11;14.97;;;8.60;;
3121;SDS011;1571;52.524;14.104;2023-03-31T02:11:43;9.37;;;5.43;;
3121;SDS011;1571;52.524;14.104;2023-03-31T02:14:17;6.83;;;3.50;;
3121;SDS011;1571;52.524;14.104;2023-03-31T02:16:49;4.60;;;2.40;;
3121;SDS011;1571;52.524;14.104;2023-03-31T02:19:25;5.43;;;3.90;;
3121;SDS011;1571;52.524;14.104;2023-03-31T02:21:58;5.13;;;3.77;;
3121;SDS011;1571;52.524;14.104;2023-03-31T02:24:30;2.90;;;2.53;;
3121;SDS011;1571;52.524;14.104;2023-03-31T02:27:03;4.80;;;2.87;;
3121;SDS011;1571;52.524;14.104;2023-03-31T02:29:38;1.87;;;1.63;;
3121;SDS011;1571;52.524;14.104;2023-03-31T02:32:09;3.57;;;1.63;;
3121;SDS011;1571;52.524;14.104;2023-03-31T02:34:41;6.00;;;1.50;;
3121;SDS011;1571;52.524;14.104;2023-03-31T02:37:09;2.10;;;1.60;;
3121;SDS011;1571;52.524;14.104;2023-03-31T02:39:39;1.80;;;1.50;;
3121;SDS011;1571;52.524;14.104;2023-03-31T02:42:12;1.87;;;1.57;;
3121;SDS011;1571;52.524;14.104;2023-03-31T02:44:40;6.03;;;1.53;;
3121;SDS011;1571;52.524;14.104;2023-03-31T02:47:10;3.37;;;1.80;;
3121;SDS011;1571;52.524;14.104;2023-03-31T02:49:44;1.30;;;1.20;;
3121;SDS011;1571;52.524;14.104;2023-03-31T02:52:24;2.90;;;1.13;;
3121;SDS011;1571;52.524;14.104;2023-03-31T02:55:07;2.93;;;1.20;;
3121;SDS011;1571;52.524;14.104;2023-03-31T03:00:44;2.93;;;1.30;;
3121;SDS011;1571;52.524;14.104;2023-03-31T03:03:26;4.17;;;1.10;;
3121;SDS011;1571;52.524;14.104;2023-03-31T03:06:03;4.03;;;1.33;;
3121;SDS011;1571;52.524;14.104;2023-03-31T03:09:19;2.00;;;1.67;;
3121;SDS011;1571;52.524;14.104;2023-03-31T03:12:02;2.90;;;1.10;;
3121;SDS011;1571;52.524;14.104;2023-03-31T03:14:36;2.27;;;1.10;;
3121;SDS011;1571;52.524;14.104;2023-03-31T03:17:17;9.50;;;1.40;;
3121;SDS011;1571;52.524;14.104;2023-03-31T03:19:51;2.30;;;1.20;;
3121;SDS011;1571;52.524;14.104;2023-03-31T03:22:21;2.30;;;1.53;;
3121;SDS011;1571;52.524;14.104;2023-03-31T03:24:50;4.30;;;1.17;;
3121;SDS011;1571;52.524;14.104;2023-03-31T03:27:19;2.90;;;1.10;;
3121;SDS011;1571;52.524;14.104;2023-03-31T03:29:49;3.83;;;1.63;;
3121;SDS011;1571;52.524;14.104;2023-03-31T03:32:18;2.23;;;0.90;;
3121;SDS011;1571;52.524;14.104;2023-03-31T03:34:46;2.23;;;1.27;;
3121;SDS011;1571;52.524;14.104;2023-03-31T03:37:15;3.50;;;1.60;;
3121;SDS011;1571;52.524;14.104;2023-03-31T03:39:43;2.30;;;1.50;;
3121;SDS011;1571;52.524;14.104;2023-03-31T03:42:11;2.23;;;1.30;;
3121;SDS011;1571;52.524;14.104;2023-03-31T03:44:40;1.80;;;1.03;;
3121;SDS011;1571;52.524;14.104;2023-03-31T03:47:08;5.43;;;1.20;;
3121;SDS011;1571;52.524;14.104;2023-03-31T03:49:37;2.27;;;1.73;;
3121;SDS011;1571;52.524;14.104;2023-03-31T03:52:06;2.70;;;1.13;;
3121;SDS011;1571;52.524;14.104;2023-03-31T03:54:34;1.80;;;1.40;;
3121;SDS011;1571;52.524;14.104;2023-03-31T03:57:02;1.53;;;1.30;;
3121;SDS011;1571;52.524;14.104;2023-03-31T03:59:31;2.43;;;1.40;;
3121;SDS011;1571;52.524;14.104;2023-03-31T04:01:59;4.47;;;0.80;;
3121;SDS011;1571;52.524;14.104;2023-03-31T04:04:27;2.70;;;1.00;;
3121;SDS011;1571;52.524;14.104;2023-03-31T04:06:57;2.97;;;1.90;;
3121;SDS011;1571;52.524;14.104;2023-03-31T04:09:25;5.33;;;1.23;;
3121;SDS011;1571;52.524;14.104;2023-03-31T04:11:54;1.63;;;1.33;;
3121;SDS011;1571;52.524;14.104;2023-03-31T04:14:22;4.20;;;1.20;;
3121;SDS011;1571;52.524;14.104;2023-03-31T04:16:51;3.70;;;1.20;;
3121;SDS011;1571;52.524;14.104;2023-03-31T04:19:22;4.30;;;1.30;;
3121;SDS011;1571;52.524;14.104;2023-03-31T04:21:51;1.10;;;0.90;;
3121;SDS011;1571;52.524;14.104;2023-03-31T04:24:26;3.37;;;0.90;;
3121;SDS011;1571;52.524;14.104;2023-03-31T04:26:56;6.03;;;1.10;;
3121;SDS011;1571;52.524;14.104;2023-03-31T04:29:25;2.30;;;1.30;;
3121;SDS011;1571;52.524;14.104;2023-03-31T04:31:53;3.33;;;1.10;;
3121;SDS011;1571;52.524;14.104;2023-03-31T04:34:25;2.20;;;1.30;;
3121;SDS011;1571;52.524;14.104;2023-03-31T04:37:01;1.10;;;1.00;;
3121;SDS011;1571;52.524;14.104;2023-03-31T04:39:31;2.77;;;1.00;;
3121;SDS011;1571;52.524;14.104;2023-03-31T04:41:59;2.83;;;1.50;;
3121;SDS011;1571;52.524;14.104;2023-03-31T04:44:28;3.40;;;1.20;;
3121;SDS011;1571;52.524;14.104;2023-03-31T04:46:57;3.37;;;1.23;;
3121;SDS011;1571;52.524;14.104;2023-03-31T04:49:29;4.43;;;1.30;;
3121;SDS011;1571;52.524;14.104;2023-03-31T04:51:59;1.50;;;0.97;;
3121;SDS011;1571;52.524;14.104;2023-03-31T04:54:27;6.13;;;1.37;;
3121;SDS011;1571;52.524;14.104;2023-03-31T04:56:57;2.27;;;1.00;;
3121;SDS011;1571;52.524;14.104;2023-03-31T04:59:25;3.60;;;1.30;;
3121;SDS011;1571;52.524;14.104;2023-03-31T05:01:53;3.40;;;2.30;;
3121;SDS011;1571;52.524;14.104;2023-03-31T05:04:21;5.03;;;2.93;;
3121;SDS011;1571;52.524;14.104;2023-03-31T05:06:49;1.77;;;1.63;;
3121;SDS011;1571;52.524;14.104;2023-03-31T05:09:18;5.07;;;1.57;;
3121;SDS011;1571;52.524;14.104;2023-03-31T05:11:46;2.10;;;1.90;;
3121;SDS011;1571;52.524;14.104;2023-03-31T05:14:16;2.43;;;1.17;;
3121;SDS011;1571;52.524;14.104;2023-03-31T05:16:44;4.50;;;1.83;;
3121;SDS011;1571;52.524;14.104;2023-03-31T05:19:12;2.47;;;1.97;;
3121;SDS011;1571;52.524;14.104;2023-03-31T05:21:41;2.30;;;1.50;;
3121;SDS011;1571;52.524;14.104;2023-03-31T05:24:09;2.60;;;2.30;;
3121;SDS011;1571;52.524;14.104;2023-03-31T05:26:38;3.23;;;1.47;;
3121;SDS011;1571;52.524;14.104;2023-03-31T05:29:07;5.33;;;1.87;;
3121;SDS011;1571;52.524;14.104;2023-03-31T05:31:36;2.60;;;1.40;;
3121;SDS011;1571;52.524;14.104;2023-03-31T05:34:04;3.30;;;2.07;;
3121;SDS011;1571;52.524;14.104;2023-03-31T05:36:33;3.40;;;1.93;;
3121;SDS011;1571;52.524;14.104;2023-03-31T05:39:03;7.00;;;1.77;;
3121;SDS011;1571;52.524;14.104;2023-03-31T05:41:31;4.23;;;1.63;;
3121;SDS011;1571;52.524;14.104;2023-03-31T05:44:00;2.53;;;1.13;;
3121;SDS011;1571;52.524;14.104;2023-03-31T05:46:29;2.33;;;1.37;;
3121;SDS011;1571;52.524;14.104;2023-03-31T05:48:58;6.10;;;1.77;;
3121;SDS011;1571;52.524;14.104;2023-03-31T05:51:26;7.07;;;1.80;;
3121;SDS011;1571;52.524;14.104;2023-03-31T05:53:55;5.43;;;1.10;;
3121;SDS011;1571;52.524;14.104;2023-03-31T05:56:23;1.63;;;1.50;;
3121;SDS011;1571;52.524;14.104;2023-03-31T05:58:53;2.13;;;1.60;;
3121;SDS011;1571;52.524;14.104;2023-03-31T06:01:21;5.37;;;1.40;;
3121;SDS011;1571;52.524;14.104;2023-03-31T06:03:50;2.20;;;1.33;;
3121;SDS011;1571;52.524;14.104;2023-03-31T06:06:20;4.50;;;1.40;;
3121;SDS011;1571;52.524;14.104;2023-03-31T06:08:48;4.57;;;1.60;;
3121;SDS011;1571;52.524;14.104;2023-03-31T06:11:18;4.30;;;1.67;;
3121;SDS011;1571;52.524;14.104;2023-03-31T06:13:47;4.03;;;1.53;;
3121;SDS011;1571;52.524;14.104;2023-03-31T06:16:17;2.13;;;1.50;;
3121;SDS011;1571;52.524;14.104;2023-03-31T06:18:46;2.80;;;1.53;;
3121;SDS011;1571;52.524;14.104;2023-03-31T06:21:17;2.80;;;1.40;;
3121;SDS011;1571;52.524;14.104;2023-03-31T06:23:48;3.87;;;1.97;;
3121;SDS011;1571;52.524;14.104;2023-03-31T06:26:20;1.43;;;1.33;;
3121;SDS011;1571;52.524;14.104;2023-03-31T06:28:49;8.07;;;1.30;;
3121;SDS011;1571;52.524;14.104;2023-03-31T06:31:18;4.80;;;1.47;;
3121;SDS011;1571;52.524;14.104;2023-03-31T06:33:47;4.30;;;1.50;;
3121;SDS011;1571;52.524;14.104;2023-03-31T06:36:16;3.27;;;1.40;;
3121;SDS011;1571;52.524;14.104;2023-03-31T06:38:46;2.40;;;1.20;;
3121;SDS011;1571;52.524;14.104;2023-03-31T06:41:16;5.00;;;1.30;;
3121;SDS011;1571;52.524;14.104;2023-03-31T06:43:46;1.40;;;1.27;;
3121;SDS011;1571;52.524;14.104;2023-03-31T06:46:16;3.73;;;1.30;;
3121;SDS011;1571;52.524;14.104;2023-03-31T06:48:44;1.27;;;1.10;;
3121;SDS011;1571;52.524;14.104;2023-03-31T06:51:12;2.30;;;1.27;;
3121;SDS011;1571;52.524;14.104;2023-03-31T06:53:41;1.83;;;1.07;;
3121;SDS011;1571;52.524;14.104;2023-03-31T06:56:11;2.90;;;1.00;;
3121;SDS011;1571;52.524;14.104;2023-03-31T06:58:39;4.97;;;1.60;;
3121;SDS011;1571;52.524;14.104;2023-03-31T07:01:07;2.80;;;1.30;;
3121;SDS011;1571;52.524;14.104;2023-03-31T07:03:37;9.90;;;2.30;;
3121;SDS011;1571;52.524;14.104;2023-03-31T07:06:05;3.67;;;1.33;;
3121;SDS011;1571;52.524;14.104;2023-03-31T07:08:34;4.83;;;0.90;;
3121;SDS011;1571;52.524;14.104;2023-03-31T07:11:02;4.80;;;1.20;;
3121;SDS011;1571;52.524;14.104;2023-03-31T07:13:33;5.37;;;1.50;;
3121;SDS011;1571;52.524;14.104;2023-03-31T07:16:01;2.30;;;1.00;;
3121;SDS011;1571;52.524;14.104;2023-03-31T07:18:31;5.20;;;1.30;;
3121;SDS011;1571;52.524;14.104;2023-03-31T07:21:01;2.87;;;1.23;;
3121;SDS011;1571;52.524;14.104;2023-03-31T07:23:35;2.00;;;1.10;;
3121;SDS011;1571;52.524;14.104;2023-03-31T07:26:03;3.40;;;1.03;;
3121;SDS011;1571;52.524;14.104;2023-03-31T07:28:33;5.23;;;1.60;;
3121;SDS011;1571;52.524;14.104;2023-03-31T07:31:02;1.70;;;1.20;;
3121;SDS011;1571;52.524;14.104;2023-03-31T07:33:36;2.57;;;1.03;;
3121;SDS011;1571;52.524;14.104;2023-03-31T07:36:05;4.93;;;1.07;;
3121;SDS011;1571;52.524;14.104;2023-03-31T07:38:39;1.60;;;0.80;;
3121;SDS011;1571;52.524;14.104;2023-03-31T07:41:09;5.43;;;0.90;;
3121;SDS011;1571;52.524;14.104;2023-03-31T07:43:40;1.90;;;0.90;;
3121;SDS011;1571;52.524;14.104;2023-03-31T07:46:12;2.67;;;1.10;;
3121;SDS011;1571;52.524;14.104;2023-03-31T07:48:42;2.83;;;1.20;;
3121;SDS011;1571;52.524;14.104;2023-03-31T07:51:13;2.40;;;1.00;;
3121;SDS011;1571;52.524;14.104;2023-03-31T07:53:42;2.40;;;1.03;;
3121;SDS011;1571;52.524;14.104;2023-03-31T07:56:10;5.53;;;1.63;;
3121;SDS011;1571;52.524;14.104;2023-03-31T07:58:40;3.20;;;0.90;;
3121;SDS011;1571;52.524;14.104;2023-03-31T08:01:08;4.10;;;1.10;;
3121;SDS011;1571;52.524;14.104;2023-03-31T08:03:38;4.57;;;1.93;;
3121;SDS011;1571;52.524;14.104;2023-03-31T08:06:06;4.47;;;1.00;;
3121;SDS011;1571;52.524;14.104;2023-03-31T08:08:35;2.50;;;1.17;;
3121;SDS011;1571;52.524;14.104;2023-03-31T08:11:04;4.60;;;0.90;;
3121;SDS011;1571;52.524;14.104;2023-03-31T08:13:33;2.80;;;1.10;;
3121;SDS011;1571;52.524;14.104;2023-03-31T08:16:03;5.33;;;1.20;;
3121;SDS011;1571;52.524;14.104;2023-03-31T08:18:32;2.77;;;0.90;;
3121;SDS011;1571;52.524;14.104;2023-03-31T08:21:00;4.10;;;0.80;;
3121;SDS011;1571;52.524;14.104;2023-03-31T08:23:28;5.50;;;1.23;;
3121;SDS011;1571;52.524;14.104;2023-03-31T08:26:06;1.13;;;0.83;;
3121;SDS011;1571;52.524;14.104;2023-03-31T08:28:35;4.10;;;0.90;;
3121;SDS011;1571;52.524;14.104;2023-03-31T08:31:05;3.40;;;0.80;;
3121;SDS011;1571;52.524;14.104;2023-03-31T08:33:36;2.83;;;1.97;;
3121;SDS011;1571;52.524;14.104;2023-03-31T08:36:05;4.57;;;1.20;;
3121;SDS011;1571;52.524;14.104;2023-03-31T08:38:37;3.47;;;1.43;;
3121;SDS011;1571;52.524;14.104;2023-03-31T08:41:11;3.43;;;0.90;;
3121;SDS011;1571;52.524;14.104;2023-03-31T08:43:51;3.40;;;1.17;;
3121;SDS011;1571;52.524;14.104;2023-03-31T08:46:24;2.90;;;1.30;;
3121;SDS011;1571;52.524;14.104;2023-03-31T08:48:56;3.50;;;1.30;;
3121;SDS011;1571;52.524;14.104;2023-03-31T08:51:28;2.13;;;1.07;;
3121;SDS011;1571;52.524;14.104;2023-03-31T08:54:00;6.00;;;1.87;;
3121;SDS011;1571;52.524;14.104;2023-03-31T08:56:30;3.23;;;1.47;;
3121;SDS011;1571;52.524;14.104;2023-03-31T08:59:03;4.13;;;0.90;;
3121;SDS011;1571;52.524;14.104;2023-03-31T09:01:35;3.23;;;1.27;;
3121;SDS011;1571;52.524;14.104;2023-03-31T09:04:29;4.97;;;1.17;;
3121;SDS011;1571;52.524;14.104;2023-03-31T09:07:23;5.23;;;1.10;;
3121;SDS011;1571;52.524;14.104;2023-03-31T09:09:59;2.70;;;1.20;;
3121;SDS011;1571;52.524;14.104;2023-03-31T09:12:38;4.07;;;1.00;;
3121;SDS011;1571;52.524;14.104;2023-03-31T09:15:18;4.87;;;0.80;;
3121;SDS011;1571;52.524;14.104;2023-03-31T09:17:54;5.63;;;1.33;;
3121;SDS011;1571;52.524;14.104;2023-03-31T09:20:27;3.77;;;1.30;;
3121;SDS011;1571;52.524;14.104;2023-03-31T09:22:59;2.40;;;1.10;;
3121;SDS011;1571;52.524;14.104;2023-03-31T09:25:31;1.93;;;0.73;;
3121;SDS011;1571;52.524;14.104;2023-03-31T09:28:03;3.50;;;1.20;;
3121;SDS011;1571;52.524;14.104;2023-03-31T09:30:38;2.97;;;1.17;;
3121;SDS011;1571;52.524;14.104;2023-03-31T09:33:11;2.57;;;1.13;;
3121;SDS011;1571;52.524;14.104;2023-03-31T09:35:44;3.97;;;1.17;;
3121;SDS011;1571;52.524;14.104;2023-03-31T09:38:13;6.90;;;2.60;;
3121;SDS011;1571;52.524;14.104;2023-03-31T09:40:42;5.00;;;1.27;;
3121;SDS011;1571;52.524;14.104;2023-03-31T09:43:14;2.53;;;1.20;;
3121;SDS011;1571;52.524;14.104;2023-03-31T09:45:48;4.97;;;1.43;;
3121;SDS011;1571;52.524;14.104;2023-03-31T09:48:36;3.40;;;1.27;;
3121;SDS011;1571;52.524;14.104;2023-03-31T09:51:07;3.70;;;1.70;;
3121;SDS011;1571;52.524;14.104;2023-03-31T09:53:45;3.73;;;1.40;;
3121;SDS011;1571;52.524;14.104;2023-03-31T09:56:30;4.07;;;1.70;;
3121;SDS011;1571;52.524;14.104;2023-03-31T09:59:00;3.23;;;1.40;;
3121;SDS011;1571;52.524;14.104;2023-03-31T10:01:29;4.77;;;1.53;;
3121;SDS011;1571;52.524;14.104;2023-03-31T10:03:59;2.43;;;2.00;;
3121;SDS011;1571;52.524;14.104;2023-03-31T10:06:31;2.80;;;1.37;;
3121;SDS011;1571;52.524;14.104;2023-03-31T10:09:00;2.50;;;1.50;;
3121;SDS011;1571;52.524;14.104;2023-03-31T10:11:30;2.30;;;1.20;;
3121;SDS011;1571;52.524;14.104;2023-03-31T10:14:00;1.17;;;1.00;;
3121;SDS011;1571;52.524;14.104;2023-03-31T10:16:31;7.23;;;1.30;;
3121;SDS011;1571;52.524;14.104;2023-03-31T10:19:11;3.00;;;1.27;;
3121;SDS011;1571;52.524;14.104;2023-03-31T10:21:46;1.87;;;1.27;;
3121;SDS011;1571;52.524;14.104;2023-03-31T10:24:17;4.27;;;1.40;;
3121;SDS011;1571;52.524;14.104;2023-03-31T10:26:46;2.07;;;1.10;;
3121;SDS011;1571;52.524;14.104;2023-03-31T10:29:17;4.10;;;0.90;;
3121;SDS011;1571;52.524;14.104;2023-03-31T10:31:51;2.57;;;1.13;;
3121;SDS011;1571;52.524;14.104;2023-03-31T10:34:21;4.17;;;1.40;;
3121;SDS011;1571;52.524;14.104;2023-03-31T10:36:51;4.83;;;1.17;;
3121;SDS011;1571;52.524;14.104;2023-03-31T10:39:29;4.27;;;1.10;;
3121;SDS011;1571;52.524;14.104;2023-03-31T10:41:59;2.43;;;1.13;;
3121;SDS011;1571;52.524;14.104;2023-03-31T10:44:29;2.57;;;1.10;;
3121;SDS011;1571;52.524;14.104;2023-03-31T10:47:02;2.30;;;0.90;;
3121;SDS011;1571;52.524;14.104;2023-03-31T10:49:37;2.73;;;1.00;;
3121;SDS011;1571;52.524;14.104;2023-03-31T10:52:13;2.30;;;0.90;;
3121;SDS011;1571;52.524;14.104;2023-03-31T10:54:48;2.67;;;1.20;;
3121;SDS011;1571;52.524;14.104;2023-03-31T10:57:21;2.80;;;1.00;;
3121;SDS011;1571;52.524;14.104;2023-03-31T11:00:02;3.63;;;1.53;;
3121;SDS011;1571;52.524;14.104;2023-03-31T11:02:59;5.00;;;1.03;;
3121;SDS011;1571;52.524;14.104;2023-03-31T11:05:43;2.60;;;1.13;;
3121;SDS011;1571;52.524;14.104;2023-03-31T11:08:23;3.47;;;1.40;;
3121;SDS011;1571;52.524;14.104;2023-03-31T11:10:59;2.80;;;1.00;;
3121;SDS011;1571;52.524;14.104;2023-03-31T11:13:50;1.87;;;1.10;;
3121;SDS011;1571;52.524;14.104;2023-03-31T11:16:27;1.70;;;1.00;;
3121;SDS011;1571;52.524;14.104;2023-03-31T11:19:04;3.23;;;1.40;;
3121;SDS011;1571;52.524;14.104;2023-03-31T11:21:49;3.20;;;1.27;;
3121;SDS011;1571;52.524;14.104;2023-03-31T11:24:28;4.23;;;1.20;;
3121;SDS011;1571;52.524;14.104;2023-03-31T11:27:16;4.73;;;2.00;;
3121;SDS011;1571;52.524;14.104;2023-03-31T11:29:56;2.03;;;0.90;;
3121;SDS011;1571;52.524;14.104;2023-03-31T11:32:32;2.93;;;1.00;;
3121;SDS011;1571;52.524;14.104;2023-03-31T11:35:21;1.73;;;0.90;;
3121;SDS011;1571;52.524;14.104;2023-03-31T11:38:19;2.47;;;1.67;;
3121;SDS011;1571;52.524;14.104;2023-03-31T11:41:01;5.90;;;1.57;;
3121;SDS011;1571;52.524;14.104;2023-03-31T11:43:35;1.80;;;1.70;;
3121;SDS011;1571;52.524;14.104;2023-03-31T11:46:09;2.47;;;1.63;;
3121;SDS011;1571;52.524;14.104;2023-03-31T11:48:42;4.47;;;1.43;;
3121;SDS011;1571;52.524;14.104;2023-03-31T11:51:15;1.80;;;1.63;;
3121;SDS011;1571;52.524;14.104;2023-03-31T11:53:49;2.00;;;1.50;;
3121;SDS011;1571;52.524;14.104;2023-03-31T11:56:20;1.97;;;1.77;;
3121;SDS011;1571;52.524;14.104;2023-03-31T11:58:52;1.93;;;1.47;;
3121;SDS011;1571;52.524;14.104;2023-03-31T12:01:26;2.70;;;1.80;;
3121;SDS011;1571;52.524;14.104;2023-03-31T12:04:00;3.57;;;1.60;;
3121;SDS011;1571;52.524;14.104;2023-03-31T12:06:34;1.77;;;1.57;;
3121;SDS011;1571;52.524;14.104;2023-03-31T12:09:12;4.40;;;1.90;;
3121;SDS011;1571;52.524;14.104;2023-03-31T12:11:47;2.97;;;1.77;;
3121;SDS011;1571;52.524;14.104;2023-03-31T12:14:22;4.10;;;1.90;;
3121;SDS011;1571;52.524;14.104;2023-03-31T12:16:57;4.07;;;1.83;;
3121;SDS011;1571;52.524;14.104;2023-03-31T12:19:31;1.43;;;1.33;;
3121;SDS011;1571;52.524;14.104;2023-03-31T12:22:09;1.20;;;1.10;;
3121;SDS011;1571;52.524;14.104;2023-03-31T12:24:43;1.93;;;1.27;;
3121;SDS011;1571;52.524;14.104;2023-03-31T12:27:13;2.20;;;1.33;;
3121;SDS011;1571;52.524;14.104;2023-03-31T12:29:45;3.97;;;1.33;;
3121;SDS011;1571;52.524;14.104;2023-03-31T12:32:18;3.90;;;1.40;;
3121;SDS011;1571;52.524;14.104;2023-03-31T12:34:50;3.70;;;1.53;;
3121;SDS011;1571;52.524;14.104;2023-03-31T12:37:31;4.70;;;1.80;;
3121;SDS011;1571;52.524;14.104;2023-03-31T12:40:25;4.10;;;1.20;;
3121;SDS011;1571;52.524;14.104;2023-03-31T12:43:15;3.63;;;1.40;;
3121;SDS011;1571;52.524;14.104;2023-03-31T12:45:52;2.80;;;1.50;;
3121;SDS011;1571;52.524;14.104;2023-03-31T12:48:32;4.17;;;2.43;;
3121;SDS011;1571;52.524;14.104;2023-03-31T12:51:17;5.73;;;1.50;;
3121;SDS011;1571;52.524;14.104;2023-03-31T12:54:02;3.37;;;1.40;;
3121;SDS011;1571;52.524;14.104;2023-03-31T13:00:07;2.80;;;1.60;;
3121;SDS011;1571;52.524;14.104;2023-03-31T13:02:46;4.83;;;3.10;;
3121;SDS011;1571;52.524;14.104;2023-03-31T13:11:33;4.23;;;2.10;;
3121;SDS011;1571;52.524;14.104;2023-03-31T13:14:04;7.00;;;3.00;;
3121;SDS011;1571;52.524;14.104;2023-03-31T13:16:40;8.00;;;2.00;;
3121;SDS011;1571;52.524;14.104;2023-03-31T13:19:09;2.60;;;1.23;;
3121;SDS011;1571;52.524;14.104;2023-03-31T13:21:52;3.63;;;1.40;;
3121;SDS011;1571;52.524;14.104;2023-03-31T13:24:23;1.83;;;1.30;;
3121;SDS011;1571;52.524;14.104;2023-03-31T13:26:53;3.63;;;1.70;;
3121;SDS011;1571;52.524;14.104;2023-03-31T13:29:25;4.63;;;2.07;;
3121;SDS011;1571;52.524;14.104;2023-03-31T13:32:21;1.20;;;1.10;;
3121;SDS011;1571;52.524;14.104;2023-03-31T13:34:53;2.37;;;2.20;;
3121;SDS011;1571;52.524;14.104;2023-03-31T13:37:36;3.67;;;2.73;;
3121;SDS011;1571;52.524;14.104;2023-03-31T13:43:27;2.93;;;2.10;;
3121;SDS011;1571;52.524;14.104;2023-03-31T13:46:15;1.60;;;1.40;;
3121;SDS011;1571;52.524;14.104;2023-03-31T13:49:01;1.90;;;1.57;;
3121;SDS011;1571;52.524;14.104;2023-03-31T13:51:40;3.23;;;1.40;;
3121;SDS011;1571;52.524;14.104;2023-03-31T13:54:34;2.47;;;0.90;;
3121;SDS011;1571;52.524;14.104;2023-03-31T13:57:26;11.10;;;2.63;;
3121;SDS011;1571;52.524;14.104;2023-03-31T14:00:11;3.03;;;1.80;;
3121;SDS011;1571;52.524;14.104;2023-03-31T14:02:51;3.23;;;0.80;;
3121;SDS011;1571;52.524;14.104;2023-03-31T14:05:30;2.63;;;0.80;;
3121;SDS011;1571;52.524;14.104;2023-03-31T14:08:04;1.33;;;0.90;;
3121;SDS011;1571;52.524;14.104;2023-03-31T14:10:38;3.97;;;0.97;;
3121;SDS011;1571;52.524;14.104;2023-03-31T14:13:09;9.50;;;3.07;;
3121;SDS011;1571;52.524;14.104;2023-03-31T14:15:41;3.43;;;2.67;;
3121;SDS011;1571;52.524;14.104;2023-03-31T14:18:15;7.33;;;4.50;;
3121;SDS011;1571;52.524;14.104;2023-03-31T14:20:58;8.30;;;6.50;;
3121;SDS011;1571;52.524;14.104;2023-03-31T14:23:37;12.47;;;6.23;;
3121;SDS011;1571;52.524;14.104;2023-03-31T14:26:15;7.03;;;4.90;;
3121;SDS011;1571;52.524;14.104;2023-03-31T14:29:00;4.00;;;2.67;;
3121;SDS011;1571;52.524;14.104;2023-03-31T14:31:37;4.50;;;3.90;;
3121;SDS011;1571;52.524;14.104;2023-03-31T14:34:15;5.40;;;4.80;;
3121;SDS011;1571;52.524;14.104;2023-03-31T14:36:55;5.80;;;3.30;;
3121;SDS011;1571;52.524;14.104;2023-03-31T14:39:28;2.27;;;1.53;;
3121;SDS011;1571;52.524;14.104;2023-03-31T14:41:59;5.60;;;2.47;;
3121;SDS011;1571;52.524;14.104;2023-03-31T14:44:32;2.73;;;2.47;;
3121;SDS011;1571;52.524;14.104;2023-03-31T14:47:01;1.30;;;1.20;;
3121;SDS011;1571;52.524;14.104;2023-03-31T14:49:33;5.83;;;1.20;;
3121;SDS011;1571;52.524;14.104;2023-03-31T14:52:12;4.40;;;0.90;;
3121;SDS011;1571;52.524;14.104;2023-03-31T14:54:43;0.80;;;0.80;;
3121;SDS011;1571;52.524;14.104;2023-03-31T14:57:15;3.47;;;1.53;;
3121;SDS011;1571;52.524;14.104;2023-03-31T14:59:46;1.87;;;0.80;;
3121;SDS011;1571;52.524;14.104;2023-03-31T15:02:18;1.43;;;0.80;;
3121;SDS011;1571;52.524;14.104;2023-03-31T15:04:56;2.23;;;0.80;;
3121;SDS011;1571;52.524;14.104;2023-03-31T15:07:26;1.43;;;1.00;;
3121;SDS011;1571;52.524;14.104;2023-03-31T15:09:54;0.80;;;0.80;;
3121;SDS011;1571;52.524;14.104;2023-03-31T15:12:23;6.87;;;1.50;;
3121;SDS011;1571;52.524;14.104;2023-03-31T15:14:53;1.63;;;1.47;;
3121;SDS011;1571;52.524;14.104;2023-03-31T15:17:27;1.83;;;1.60;;
3121;SDS011;1571;52.524;14.104;2023-03-31T15:19:59;1.20;;;1.13;;
3121;SDS011;1571;52.524;14.104;2023-03-31T15:22:31;3.07;;;1.27;;
3121;SDS011;1571;52.524;14.104;2023-03-31T15:25:00;1.50;;;1.30;;
3121;SDS011;1571;52.524;14.104;2023-03-31T15:27:30;1.20;;;0.90;;
3121;SDS011;1571;52.524;14.104;2023-03-31T15:30:04;1.10;;;0.90;;
3121;SDS011;1571;52.524;14.104;2023-03-31T15:32:35;1.43;;;1.10;;
3121;SDS011;1571;52.524;14.104;2023-03-31T15:35:05;2.50;;;1.27;;
3121;SDS011;1571;52.524;14.104;2023-03-31T15:37:50;3.07;;;0.80;;
3121;SDS011;1571;52.524;14.104;2023-03-31T15:40:20;1.67;;;1.20;;
3121;SDS011;1571;52.524;14.104;2023-03-31T15:42:52;2.30;;;1.47;;
3121;SDS011;1571;52.524;14.104;2023-03-31T15:45:44;1.20;;;1.10;;
3121;SDS011;1571;52.524;14.104;2023-03-31T15:48:17;6.53;;;1.10;;
3121;SDS011;1571;52.524;14.104;2023-03-31T15:50:48;1.23;;;1.10;;
3121;SDS011;1571;52.524;14.104;2023-03-31T15:53:24;2.77;;;0.80;;
3121;SDS011;1571;52.524;14.104;2023-03-31T15:55:56;1.07;;;0.97;;
3121;SDS011;1571;52.524;14.104;2023-03-31T16:01:15;6.87;;;2.00;;
3121;SDS011;1571;52.524;14.104;2023-03-31T16:03:43;1.10;;;0.80;;